Time;durP1;ratioP1;P1;durP2;ratioP2;P2;SDS_P1;SDS_P2;PMS_P1;PMS_P2;Temp;Humidity;BMP_temperature;BMP_pressure;BME280_temperature;BME280_humidity;BME280_pressure;Samples;Min_cycle;Max_cycle;Signal;HPM_P1;HPM_P2
2022/10/19 00:05:15;;;;;;;3.65;2.35;;;;;;;11.23;100.00;98597.66;18162599;32;20454;-63
2022/10/19 00:15:17;;;;;;;3.05;2.50;;;;;;;11.14;100.00;98594.56;18038194;32;20067;-63
2022/10/19 00:25:20;;;;;;;6.12;3.35;;;;;;;11.08;100.00;98594.75;18037798;32;20078;-63
2022/10/19 00:35:22;;;;;;;4.78;2.70;;;;;;;11.02;100.00;98593.88;18086025;32;20066;-63
2022/10/19 00:45:24;;;;;;;2.92;2.50;;;;;;;10.95;100.00;98595.91;18105509;32;20046;-63
2022/10/19 00:55:27;;;;;;;3.95;2.80;;;;;;;10.94;100.00;98583.47;18232645;32;20076;-63
2022/10/19 01:05:32;;;;;;;6.90;3.28;;;;;;;10.92;100.00;98580.19;18231247;32;20102;-63
2022/10/19 01:15:50;;;;;;;2.83;2.20;;;;;;;11.01;100.00;98589.53;18231307;32;20058;-63
2022/10/19 01:26:10;;;;;;;4.35;2.50;;;;;;;11.19;100.00;98588.41;18159256;32;20047;-63
2022/10/19 01:36:26;;;;;;;3.28;2.37;;;;;;;11.41;100.00;98591.09;18159069;32;20130;-63
2022/10/19 01:46:36;;;;;;;4.05;2.72;;;;;;;11.59;100.00;98579.12;18158432;32;20174;-63
2022/10/19 01:56:41;;;;;;;6.90;3.12;;;;;;;11.77;100.00;98580.69;18173046;32;20093;-63
2022/10/19 02:06:43;;;;;;;6.70;3.42;;;;;;;11.94;100.00;98566.22;18230088;32;20494;-63
2022/10/19 02:16:56;;;;;;;7.30;4.18;;;;;;;12.07;100.00;98546.81;18229483;32;20050;-63
2022/10/19 02:27:00;;;;;;;6.53;4.37;;;;;;;12.17;100.00;98546.91;18236948;32;20393;-64
2022/10/19 02:37:03;;;;;;;9.80;5.85;;;;;;;12.28;100.00;98541.56;18237990;32;20376;-64
2022/10/19 02:47:14;;;;;;;14.90;7.07;;;;;;;12.36;100.00;98543.78;18238731;32;20085;-63
2022/10/19 02:57:20;;;;;;;11.07;6.43;;;;;;;12.45;100.00;98531.38;18237803;32;20617;-63
2022/10/19 03:07:22;;;;;;;11.63;6.00;;;;;;;12.54;100.00;98510.03;18237621;32;20106;-63
2022/10/19 03:17:25;;;;;;;12.32;6.12;;;;;;;12.63;100.00;98513.84;18237434;32;20107;-63
2022/10/19 03:27:27;;;;;;;14.98;7.30;;;;;;;12.70;100.00;98516.34;18236811;32;20072;-63
2022/10/19 03:37:30;;;;;;;14.98;7.75;;;;;;;12.75;100.00;98508.22;18236216;32;20352;-63
2022/10/19 03:47:33;;;;;;;10.50;7.95;;;;;;;12.82;100.00;98495.22;18235201;32;20114;-63
2022/10/19 03:57:37;;;;;;;10.82;7.43;;;;;;;12.88;100.00;98490.63;18235518;32;20446;-63
2022/10/19 04:07:40;;;;;;;14.13;9.25;;;;;;;12.94;100.00;98496.94;18233992;32;20480;-63
2022/10/19 04:17:42;;;;;;;15.90;10.90;;;;;;;12.99;100.00;98505.06;18234756;32;20370;-63
2022/10/19 04:27:49;;;;;;;14.57;11.35;;;;;;;13.02;100.00;98524.38;18234211;32;20118;-64
2022/10/19 04:37:51;;;;;;;21.60;11.82;;;;;;;13.05;100.00;98495.88;18232482;32;20051;-63
2022/10/19 04:47:56;;;;;;;16.00;10.98;;;;;;;13.06;100.00;98481.22;18231311;32;20122;-64
2022/10/19 04:57:59;;;;;;;12.80;9.57;;;;;;;13.03;100.00;98498.03;18232964;32;20102;-63
2022/10/19 05:08:02;;;;;;;14.32;9.70;;;;;;;12.98;100.00;98498.84;18232223;32;20066;-63
2022/10/19 05:18:05;;;;;;;12.50;8.70;;;;;;;12.97;100.00;98490.97;18159547;32;20063;-63
2022/10/19 05:28:07;;;;;;;12.98;8.27;;;;;;;12.94;100.00;98486.88;18159488;32;20090;-63
2022/10/19 05:38:10;;;;;;;9.10;6.50;;;;;;;12.90;100.00;98482.25;18158631;32;20097;-63
2022/10/19 05:48:15;;;;;;;14.48;9.18;;;;;;;12.83;100.00;98479.78;18083200;32;20122;-63
2022/10/19 05:58:24;;;;;;;12.40;8.43;;;;;;;12.74;100.00;98476.75;18099923;32;20089;-63
2022/10/19 06:08:26;;;;;;;13.48;8.93;;;;;;;12.65;100.00;98472.91;18106596;32;20093;-63
2022/10/19 06:18:29;;;;;;;11.32;8.18;;;;;;;12.60;100.00;98470.97;18213689;32;20089;-63
2022/10/19 06:28:34;;;;;;;12.40;9.25;;;;;;;12.53;100.00;98468.50;18239150;32;20122;-63
2022/10/19 06:38:40;;;;;;;11.98;8.48;;;;;;;12.49;100.00;98475.53;18238660;32;20102;-63
2022/10/19 06:49:02;;;;;;;12.85;8.32;;;;;;;12.60;100.00;98478.31;18238379;32;20359;-63
2022/10/19 06:59:09;;;;;;;15.27;8.38;;;;;;;12.73;100.00;98487.88;18236740;32;20355;-63
2022/10/19 07:09:13;;;;;;;13.83;8.80;;;;;;;12.88;100.00;98480.62;18237062;32;20397;-63
2022/10/19 07:19:17;;;;;;;12.30;8.43;;;;;;;13.01;100.00;98486.63;18237150;32;20436;-63
2022/10/19 07:29:21;;;;;;;16.58;10.90;;;;;;;13.04;100.00;98494.25;18235388;32;20047;-63
2022/10/19 07:39:31;;;;;;;13.25;8.63;;;;;;;13.22;100.00;98485.63;18236410;32;20054;-63
2022/10/19 07:49:44;;;;;;;8.70;7.05;;;;;;;13.27;100.00;98475.88;18235835;32;20058;-63
2022/10/19 07:59:50;;;;;;;13.70;8.40;;;;;;;13.24;100.00;98482.66;18234165;32;20038;-63
2022/10/19 08:09:56;;;;;;;13.20;7.95;;;;;;;13.21;100.00;98489.41;18234962;32;20103;-63
2022/10/19 08:20:10;;;;;;;13.60;9.07;;;;;;;13.37;100.00;98482.16;18233384;32;20055;-63
2022/10/19 08:30:45;;;;;;;;;;;;;;;13.52;100.00;98473.22;18234178;32;20366;-63
2022/10/19 08:41:46;;;;;;;14.00;9.73;;;;;;;13.77;100.00;98490.63;18161438;32;20311;-63
2022/10/19 08:52:43;;;;;;;12.85;9.23;;;;;;;13.97;100.00;98478.94;18159594;32;20093;-64
2022/10/19 09:03:36;;;;;;;16.83;10.38;;;;;;;14.15;100.00;98477.56;18160349;32;20050;-63
2022/10/19 09:14:25;;;;;;;15.88;11.48;;;;;;;14.55;100.00;98462.28;18191151;32;20106;-63
2022/10/19 09:24:53;;;;;;;11.65;8.90;;;;;;;14.80;100.00;98452.44;18231499;32;20085;-64
2022/10/19 09:35:06;;;;;;;14.43;9.55;;;;;;;15.06;100.00;98441.41;18224009;32;20121;-65
2022/10/19 09:45:24;;;;;;;13.07;8.82;;;;;;;15.21;100.00;98448.69;18241664;32;20482;-63
2022/10/19 09:55:33;;;;;;;15.48;9.85;;;;;;;15.33;100.00;98443.69;18240843;32;20064;-63
2022/10/19 10:05:40;;;;;;;12.55;9.63;;;;;;;15.56;100.00;98430.47;18240468;32;20070;-63
2022/10/19 10:15:53;;;;;;;11.20;8.43;;;;;;;15.36;100.00;98426.81;18238707;32;20058;-63
2022/10/19 10:26:00;;;;;;;16.83;10.73;;;;;;;15.39;100.00;98412.59;18239507;32;20046;-64
2022/10/19 10:36:08;;;;;;;10.65;7.30;;;;;;;15.69;100.00;98397.12;18237659;32;20113;-61
2022/10/19 10:46:26;;;;;;;9.85;7.40;;;;;;;15.81;100.00;98404.12;18237920;32;20051;-64
2022/10/19 10:56:32;;;;;;;9.43;7.05;;;;;;;16.04;100.00;98388.91;18236530;32;20034;-64
2022/10/19 11:07:21;;;;;;;9.55;6.80;;;;;;;16.37;100.00;98361.81;18236602;32;20070;-64
2022/10/19 11:17:36;;;;;;;10.43;6.10;;;;;;;16.76;100.00;98358.06;18236838;32;20074;-64
2022/10/19 11:28:06;;;;;;;8.75;6.62;;;;;;;16.92;99.85;98340.37;18164572;32;20082;-63
2022/10/19 11:38:36;;;;;;;8.13;6.15;;;;;;;17.31;100.00;98327.50;18164545;32;20414;-64
2022/10/19 11:49:03;;;;;;;10.05;5.65;;;;;;;17.93;98.58;98315.53;18151919;32;20070;-64
2022/10/19 11:59:31;;;;;;;8.53;5.53;;;;;;;18.37;94.58;98300.41;18182849;32;20366;-61
2022/10/19 12:10:08;;;;;;;;;;;;;;;;;;;;;
2022/10/19 12:20:36;;;;;;;8.88;5.03;;;;;;;18.52;85.56;98274.62;18234873;32;20442;-61
2022/10/19 12:30:40;;;;;;;6.90;4.78;;;;;;;18.86;88.56;98264.28;18234342;32;20096;-61
2022/10/19 12:41:14;;;;;;;8.77;4.53;;;;;;;19.38;85.82;98233.72;18233712;32;20050;-62
2022/10/19 12:52:06;;;;;;;;;;;;;;;;;;;;;
2022/10/19 13:02:47;;;;;;;4.55;4.00;;;;;;;18.97;83.84;98219.09;18231805;32;20110;-61
2022/10/19 13:13:50;;;;;;;5.87;4.10;;;;;;;18.87;84.75;98211.09;18231290;32;20118;-61
2022/10/19 13:24:25;;;;;;;6.47;3.92;;;;;;;19.24;85.61;98192.66;18230473;32;20114;-61
2022/10/19 13:34:30;;;;;;;10.07;7.05;;;;;;;19.43;83.42;98184.19;18231187;32;20081;-61
2022/10/19 13:44:54;;;;;;;;;;;;;;;;;;;;;
2022/10/19 13:55:08;;;;;;;16.58;12.52;;;;;;;18.84;85.88;98176.91;18228620;32;20081;-62
2022/10/19 14:05:44;;;;;;;19.73;13.43;;;;;;;18.52;87.71;98167.81;18229820;32;20169;-61
2022/10/19 14:15:55;;;;;;;24.52;16.73;;;;;;;17.91;91.34;98168.09;18229775;32;20042;-61
2022/10/19 14:26:11;;;;;;;26.00;17.12;;;;;;;17.32;94.32;98173.34;18240049;32;20109;-61
2022/10/19 14:36:24;;;;;;;21.10;15.70;;;;;;;16.91;97.56;98179.50;18238327;32;20074;-64
2022/10/19 14:46:32;;;;;;;24.87;16.15;;;;;;;16.68;100.00;98181.25;18238676;32;20391;-63
2022/10/19 14:56:48;;;;;;;19.83;14.65;;;;;;;16.70;99.89;98173.53;18238020;32;20094;-63
2022/10/19 15:06:54;;;;;;;15.98;11.82;;;;;;;16.55;100.00;98150.84;18238245;32;20046;-64
2022/10/19 15:16:59;;;;;;;20.02;12.85;;;;;;;16.53;100.00;98153.06;18237514;32;20072;-63
2022/10/19 15:27:33;;;;;;;15.20;11.00;;;;;;;16.34;100.00;98139.44;18236741;32;20065;-61
2022/10/19 15:37:41;;;;;;;16.77;11.50;;;;;;;16.12;100.00;98150.13;18236393;32;20084;-61
2022/10/19 15:48:19;;;;;;;16.20;11.30;;;;;;;15.69;100.00;98146.31;18235924;32;20066;-61
2022/10/19 15:58:32;;;;;;;13.62;10.30;;;;;;;15.40;100.00;98132.72;18030046;32;20071;-61
2022/10/19 16:08:35;;;;;;;13.52;9.10;;;;;;;15.16;100.00;98122.66;18026704;32;20102;-61
2022/10/19 16:18:39;;;;;;;10.27;8.13;;;;;;;14.98;100.00;98105.13;18026201;32;20067;-61
2022/10/19 16:28:43;;;;;;;10.37;7.77;;;;;;;14.74;100.00;98099.66;18078091;32;20057;-60
2022/10/19 16:38:46;;;;;;;11.18;7.28;;;;;;;14.43;100.00;98094.47;18233625;32;20157;-61
2022/10/19 16:48:50;;;;;;;11.20;8.37;;;;;;;14.12;100.00;98089.25;18160700;32;20359;-61
2022/10/19 16:58:58;;;;;;;13.07;7.70;;;;;;;13.82;100.00;98103.84;18147927;32;20059;-60
2022/10/19 17:09:01;;;;;;;10.02;7.68;;;;;;;13.53;100.00;98109.97;18036343;32;20534;-63
2022/10/19 17:19:26;;;;;;;12.60;7.47;;;;;;;13.27;100.00;98101.09;17924857;33;20427;-63
2022/10/19 17:29:29;;;;;;;13.35;9.23;;;;;;;13.07;100.00;98108.19;17973973;32;20067;-63
2022/10/19 17:39:32;;;;;;;11.00;7.35;;;;;;;12.87;100.00;98109.84;18127090;32;20575;-63
2022/10/19 17:49:36;;;;;;;11.57;7.37;;;;;;;12.67;100.00;98112.59;18158528;32;20113;-63
2022/10/19 17:59:38;;;;;;;13.70;9.60;;;;;;;12.52;100.00;98125.06;18204563;32;20054;-63
2022/10/19 18:09:56;;;;;;;12.80;8.77;;;;;;;12.42;100.00;98119.66;18240525;32;20074;-64
2022/10/19 18:19:59;;;;;;;9.43;7.43;;;;;;;12.45;100.00;98113.69;18240061;32;20454;-63
2022/10/19 18:30:02;;;;;;;13.43;7.93;;;;;;;12.45;100.00;98091.19;18238949;32;20340;-64
2022/10/19 18:40:05;;;;;;;12.20;7.95;;;;;;;12.45;100.00;98097.41;18167258;32;20073;-63
2022/10/19 18:50:08;;;;;;;10.77;8.77;;;;;;;12.38;100.00;98073.28;18166729;32;20142;-63
2022/10/19 19:00:13;;;;;;;14.05;8.25;;;;;;;12.24;100.00;98080.34;18153902;32;20110;-63
2022/10/19 19:10:17;;;;;;;10.98;7.82;;;;;;;12.11;100.00;98078.97;18209504;32;20054;-63
2022/10/19 19:20:19;;;;;;;11.30;7.87;;;;;;;12.03;100.00;98055.94;18237446;32;20050;-63
2022/10/19 19:30:22;;;;;;;13.82;7.95;;;;;;;11.98;100.00;98047.00;18237349;32;20074;-63
2022/10/19 19:40:25;;;;;;;12.90;7.63;;;;;;;11.93;100.00;98025.25;18164389;32;20432;-63
2022/10/19 19:50:29;;;;;;;12.98;7.65;;;;;;;11.92;100.00;98029.06;18164187;32;20062;-63
2022/10/19 20:00:32;;;;;;;12.27;8.57;;;;;;;11.95;100.00;98020.41;18163301;32;20067;-63
2022/10/19 20:10:40;;;;;;;11.60;8.30;;;;;;;12.08;100.00;98022.59;18220112;32;20460;-63
2022/10/19 20:20:43;;;;;;;13.38;7.50;;;;;;;12.32;100.00;98019.31;18234370;32;20490;-63
2022/10/19 20:30:45;;;;;;;11.18;8.02;;;;;;;12.69;100.00;98010.06;18233080;32;20427;-63
2022/10/19 20:40:48;;;;;;;9.18;6.85;;;;;;;13.12;100.00;98005.00;18234109;32;20098;-63
2022/10/19 20:50:51;;;;;;;9.13;6.75;;;;;;;13.32;100.00;98009.53;18233586;32;20128;-63
2022/10/19 21:00:54;;;;;;;10.10;6.87;;;;;;;13.48;100.00;98009.47;18233178;32;20062;-63
2022/10/19 21:10:57;;;;;;;7.80;6.53;;;;;;;13.61;100.00;98005.31;18232470;32;20084;-63
2022/10/19 21:20:59;;;;;;;9.63;6.43;;;;;;;13.64;100.00;98002.06;18230947;32;20050;-64
2022/10/19 21:31:08;;;;;;;7.65;5.90;;;;;;;13.76;100.00;98009.84;18230963;32;20054;-63
2022/10/19 21:41:17;;;;;;;9.45;6.45;;;;;;;13.80;100.00;98003.56;18231837;32;20053;-63
2022/10/19 21:51:31;;;;;;;10.82;6.18;;;;;;;13.80;100.00;98013.59;18231313;32;20062;-63
2022/10/19 22:01:34;;;;;;;10.48;6.62;;;;;;;13.70;100.00;97993.59;18230276;32;20359;-63
2022/10/19 22:11:43;;;;;;;12.15;7.37;;;;;;;13.66;100.00;97988.97;18216861;32;20076;-64
2022/10/19 22:21:46;;;;;;;10.55;5.80;;;;;;;13.64;100.00;97974.88;18228479;32;20050;-63
2022/10/19 22:31:49;;;;;;;9.10;7.12;;;;;;;13.68;100.00;97974.03;18156910;32;20075;-63
2022/10/19 22:42:29;;;;;;;10.32;6.95;;;;;;;13.72;100.00;97966.13;18038350;32;20147;-63
2022/10/19 22:52:31;;;;;;;8.65;6.70;;;;;;;13.66;100.00;97959.91;18042878;32;20087;-63
2022/10/19 23:02:34;;;;;;;10.95;6.07;;;;;;;13.51;100.00;97943.69;18054627;32;20111;-63
2022/10/19 23:12:37;;;;;;;8.88;6.45;;;;;;;13.43;100.00;97928.00;18217650;32;20358;-63
2022/10/19 23:22:39;;;;;;;12.77;8.68;;;;;;;13.40;100.00;97915.78;18228117;32;20071;-63
2022/10/19 23:32:42;;;;;;;14.30;9.98;;;;;;;13.43;100.00;97904.37;18215014;32;20419;-63
2022/10/19 23:42:44;;;;;;;10.93;9.07;;;;;;;13.64;100.00;97896.09;18227113;32;20065;-63
2022/10/19 23:52:46;;;;;;;12.68;9.38;;;;;;;13.69;100.00;97898.72;18227672;32;20350;-63
